Time;durP1;ratioP1;P1;durP2;ratioP2;P2;SDS_P1;SDS_P2;PMS_P1;PMS_P2;Temp;Humidity;BMP_temperature;BMP_pressure;BME280_temperature;BME280_humidity;BME280_pressure;Samples;Min_cycle;Max_cycle;Signal;HPM_P1;HPM_P2
2023/03/13 00:01:14;;;;;;;22.30;7.53;;;7.20;1.00;;;;;;5032734;28;20410;-73
2023/03/13 00:03:40;;;;;;;29.10;7.87;;;7.20;1.00;;;;;;5032043;28;20602;-73
2023/03/13 00:06:07;;;;;;;27.87;8.50;;;7.30;1.00;;;;;;5032600;28;20418;-72
2023/03/13 00:08:32;;;;;;;21.53;7.97;;;7.20;1.00;;;;;;5032633;28;20430;-72
2023/03/13 00:11:05;;;;;;;20.37;7.83;;;7.30;1.00;;;;;;5031194;28;20764;-74
2023/03/13 00:13:31;;;;;;;20.47;7.50;;;7.30;1.00;;;;;;5033434;28;20172;-74
2023/03/13 00:16:05;;;;;;;25.27;7.30;;;7.30;1.00;;;;;;5033260;28;20476;-73
2023/03/13 00:18:31;;;;;;;19.83;6.17;;;7.30;1.00;;;;;;5033215;28;20171;-72
2023/03/13 00:21:02;;;;;;;19.70;8.10;;;7.30;1.00;;;;;;5031064;28;20422;-74
2023/03/13 00:23:28;;;;;;;24.97;8.13;;;7.20;1.00;;;;;;5033281;28;20676;-73
2023/03/13 00:26:06;;;;;;;25.00;7.60;;;7.30;1.00;;;;;;5032573;28;20394;-74
2023/03/13 00:28:33;;;;;;;20.97;6.60;;;7.30;1.00;;;;;;5033039;28;20417;-73
2023/03/13 00:31:14;;;;;;;33.00;8.77;;;7.30;1.00;;;;;;5032362;28;20395;-73
2023/03/13 00:33:42;;;;;;;23.30;8.50;;;7.30;1.00;;;;;;5033139;28;20947;-74
2023/03/13 00:36:11;;;;;;;18.33;6.70;;;7.30;1.00;;;;;;5033200;28;20417;-72
2023/03/13 00:38:37;;;;;;;17.33;6.97;;;7.30;1.00;;;;;;5033071;28;20406;-74
2023/03/13 00:41:12;;;;;;;30.27;9.57;;;7.30;1.00;;;;;;5032331;28;20402;-73
2023/03/13 00:43:40;;;;;;;34.50;8.50;;;7.30;1.00;;;;;;5036597;28;20976;-73
2023/03/13 00:46:06;;;;;;;23.53;7.97;;;7.30;1.00;;;;;;5036880;28;20438;-74
2023/03/13 00:48:33;;;;;;;25.37;7.60;;;7.30;1.00;;;;;;5037031;28;20417;-73
2023/03/13 00:50:59;;;;;;;36.07;7.97;;;7.40;1.00;;;;;;5036248;28;20767;-74
2023/03/13 00:53:25;;;;;;;33.13;8.10;;;7.40;1.00;;;;;;5036899;28;20410;-72
2023/03/13 00:55:58;;;;;;;34.50;9.10;;;7.40;1.00;;;;;;5036948;28;20564;-73
2023/03/13 00:58:25;;;;;;;22.70;7.80;;;7.40;1.00;;;;;;5036881;28;20172;-74
2023/03/13 01:00:52;;;;;;;25.53;9.20;;;7.40;1.00;;;;;;5035612;28;20406;-73
2023/03/13 01:03:18;;;;;;;29.57;8.33;;;7.40;1.00;;;;;;5036681;28;20862;-73
2023/03/13 01:05:44;;;;;;;27.93;8.30;;;7.40;1.00;;;;;;5036689;28;20468;-73
2023/03/13 01:08:10;;;;;;;18.37;7.90;;;7.40;1.00;;;;;;5036921;28;20406;-73
2023/03/13 01:10:36;;;;;;;25.33;9.70;;;7.40;1.00;;;;;;5034827;28;20406;-74
2023/03/13 01:13:03;;;;;;;18.20;7.33;;;7.40;1.00;;;;;;5036361;28;20196;-74
2023/03/13 01:15:30;;;;;;;26.90;9.23;;;7.40;1.00;;;;;;5036527;28;20172;-73
2023/03/13 01:17:55;;;;;;;28.67;7.73;;;7.40;1.00;;;;;;5036476;28;20422;-72
2023/03/13 01:20:21;;;;;;;22.57;8.37;;;7.40;1.00;;;;;;5033883;28;20418;-73
2023/03/13 01:22:47;;;;;;;27.70;8.50;;;7.40;1.00;;;;;;5036395;28;20285;-73
2023/03/13 01:25:12;;;;;;;21.87;9.43;;;7.50;1.00;;;;;;5036387;28;20627;-74
2023/03/13 01:27:38;;;;;;;23.57;8.53;;;7.40;1.00;;;;;;5036215;28;20229;-73
2023/03/13 01:30:04;;;;;;;19.30;9.07;;;7.50;1.00;;;;;;5035997;28;20171;-75
2023/03/13 01:32:32;;;;;;;19.57;8.90;;;7.40;1.00;;;;;;5036197;28;20191;-72
2023/03/13 01:34:58;;;;;;;22.00;9.73;;;7.40;1.00;;;;;;5036164;28;20467;-74
2023/03/13 01:37:24;;;;;;;31.13;9.67;;;7.50;1.00;;;;;;5035560;28;20490;-73
2023/03/13 01:39:49;;;;;;;21.57;8.93;;;7.50;1.00;;;;;;5035881;28;20530;-74
2023/03/13 01:42:15;;;;;;;19.53;9.03;;;7.50;1.00;;;;;;5035281;28;20207;-73
2023/03/13 01:44:55;;;;;;;20.03;8.50;;;7.50;1.00;;;;;;5036046;28;20176;-73
2023/03/13 01:47:21;;;;;;;20.57;9.67;;;7.50;1.00;;;;;;5035997;28;20691;-74
2023/03/13 01:49:49;;;;;;;19.93;8.00;;;7.50;1.00;;;;;;5035868;28;20402;-72
2023/03/13 01:52:23;;;;;;;18.83;8.87;;;7.50;1.00;;;;;;5035239;28;20434;-72
2023/03/13 01:55:09;;;;;;;19.70;7.20;;;7.60;1.00;;;;;;5034004;28;20821;-73
2023/03/13 01:57:43;;;;;;;34.13;9.93;;;7.60;1.00;;;;;;5035775;28;20414;-74
2023/03/13 02:00:21;;;;;;;27.33;8.57;;;7.60;1.00;;;;;;5035141;28;20489;-74
2023/03/13 02:02:50;;;;;;;22.57;8.83;;;7.60;1.00;;;;;;5035682;28;20817;-72
2023/03/13 02:05:20;;;;;;;26.00;9.83;;;7.60;1.00;;;;;;5035610;28;20398;-74
2023/03/13 02:07:56;;;;;;;19.87;7.77;;;7.60;1.00;;;;;;5034205;28;20454;-74
2023/03/13 02:10:24;;;;;;;10.80;7.77;;;7.60;1.00;;;;;;5034795;28;20410;-72
2023/03/13 02:12:52;;;;;;;24.73;8.83;;;7.60;1.00;;;;;;5034957;28;20442;-72
2023/03/13 02:15:21;;;;;;;13.43;6.87;;;7.60;1.00;;;;;;5034248;28;20419;-72
2023/03/13 02:17:49;;;;;;;23.87;8.40;;;7.60;1.00;;;;;;5035337;28;20472;-71
2023/03/13 02:20:21;;;;;;;18.43;7.97;;;7.60;1.00;;;;;;5034696;28;20745;-74
2023/03/13 02:22:53;;;;;;;17.63;7.60;;;7.60;1.00;;;;;;5035130;28;20461;-72
2023/03/13 02:25:24;;;;;;;28.77;8.00;;;7.60;1.00;;;;;;5035303;28;20402;-72
2023/03/13 02:28:14;;;;;;;15.00;7.90;;;7.70;1.00;;;;;;5035111;28;20485;-73
2023/03/13 02:30:42;;;;;;;16.90;9.27;;;7.70;1.00;;;;;;5034059;28;20464;-72
2023/03/13 02:33:10;;;;;;;24.70;9.00;;;7.70;1.00;;;;;;5035035;28;20426;-72
2023/03/13 02:35:36;;;;;;;29.63;8.30;;;7.70;1.00;;;;;;5035135;28;20501;-75
2023/03/13 02:38:04;;;;;;;12.67;6.40;;;7.70;1.00;;;;;;5033731;28;20501;-73
2023/03/13 02:40:37;;;;;;;17.03;6.63;;;7.70;1.00;;;;;;5034421;28;20810;-73
2023/03/13 02:43:18;;;;;;;11.67;6.00;;;7.70;1.00;;;;;;5034743;28;20468;-73
2023/03/13 02:46:10;;;;;;;21.30;6.93;;;7.70;1.00;;;;;;5034867;28;20409;-73
2023/03/13 02:48:45;;;;;;;14.87;6.63;;;7.70;1.00;;;;;;5034268;28;20968;-72
2023/03/13 02:51:34;;;;;;;13.93;6.43;;;7.70;1.00;;;;;;5034033;28;20437;-73
2023/03/13 02:54:05;;;;;;;16.27;7.23;;;7.70;1.00;;;;;;5033739;28;20402;-74
2023/03/13 02:56:33;;;;;;;14.67;7.37;;;7.70;1.00;;;;;;5034626;28;20406;-72
2023/03/13 02:58:58;;;;;;;21.73;8.27;;;7.70;1.00;;;;;;5034753;28;20421;-73
2023/03/13 03:01:25;;;;;;;18.87;7.70;;;7.70;1.00;;;;;;5034086;28;20907;-71
2023/03/13 03:03:50;;;;;;;19.00;9.90;;;7.60;1.00;;;;;;5033821;28;20466;-71
2023/03/13 03:06:16;;;;;;;35.57;8.50;;;7.60;1.00;;;;;;5033536;28;20250;-73
2023/03/13 03:08:42;;;;;;;14.83;8.10;;;7.60;1.00;;;;;;5033500;28;20180;-74
2023/03/13 03:11:09;;;;;;;18.33;8.20;;;7.50;1.00;;;;;;5033671;28;20179;-72
2023/03/13 03:13:35;;;;;;;13.83;5.57;;;7.60;1.00;;;;;;5033101;28;20457;-73
2023/03/13 03:16:06;;;;;;;20.13;8.27;;;7.60;1.00;;;;;;5034367;28;20414;-73
2023/03/13 03:18:31;;;;;;;18.20;9.17;;;7.60;1.00;;;;;;5032947;28;20176;-72
2023/03/13 03:20:57;;;;;;;22.97;9.80;;;7.50;1.00;;;;;;5032251;28;20405;-74
2023/03/13 03:23:23;;;;;;;28.37;10.57;;;7.50;1.00;;;;;;5033555;28;20278;-73
2023/03/13 03:25:48;;;;;;;19.93;9.70;;;7.50;1.00;;;;;;5034111;28;20176;-72
2023/03/13 03:28:14;;;;;;;15.77;9.80;;;7.50;1.00;;;;;;5032909;28;20176;-72
2023/03/13 03:30:40;;;;;;;20.00;9.93;;;7.50;1.00;;;;;;5033349;28;20175;-73
2023/03/13 03:33:05;;;;;;;21.27;10.57;;;7.50;1.00;;;;;;5033867;28;20191;-71
2023/03/13 03:35:32;;;;;;;22.37;9.53;;;7.60;1.00;;;;;;5032698;28;20278;-73
2023/03/13 03:37:58;;;;;;;19.00;10.10;;;7.60;1.00;;;;;;5033874;28;20168;-71
2023/03/13 03:40:24;;;;;;;22.97;11.97;;;7.50;1.00;;;;;;5032662;28;20432;-72
2023/03/13 03:42:50;;;;;;;16.50;10.00;;;7.50;1.00;;;;;;5033639;28;20567;-72
2023/03/13 03:45:15;;;;;;;36.43;11.70;;;7.50;1.00;;;;;;5033761;28;20218;-70
2023/03/13 03:47:41;;;;;;;21.63;9.47;;;7.50;1.00;;;;;;5033711;28;20171;-71
2023/03/13 03:50:09;;;;;;;22.73;8.87;;;7.50;1.00;;;;;;5033054;28;20690;-74
2023/03/13 03:52:36;;;;;;;22.37;10.90;;;7.50;1.00;;;;;;5032354;28;20472;-75
2023/03/13 03:55:01;;;;;;;27.50;10.37;;;7.50;1.00;;;;;;5033557;28;20441;-73
2023/03/13 03:57:27;;;;;;;24.83;10.77;;;7.50;1.00;;;;;;5033516;28;20445;-70
2023/03/13 03:59:53;;;;;;;25.90;10.73;;;7.50;1.00;;;;;;5032842;28;20179;-72
2023/03/13 04:02:18;;;;;;;23.60;9.07;;;7.50;1.00;;;;;;5032888;28;20605;-72
2023/03/13 04:04:44;;;;;;;25.00;10.20;;;7.50;1.00;;;;;;5033291;28;20254;-72
2023/03/13 04:07:10;;;;;;;26.23;8.67;;;7.50;1.00;;;;;;5033254;28;20402;-74
2023/03/13 04:09:35;;;;;;;21.90;9.87;;;7.50;1.00;;;;;;5033375;28;20178;-73
2023/03/13 04:12:01;;;;;;;33.33;8.70;;;7.50;1.00;;;;;;5032746;28;20196;-71
2023/03/13 04:14:27;;;;;;;24.77;9.80;;;7.50;1.00;;;;;;5033315;28;20262;-71
2023/03/13 04:16:52;;;;;;;15.97;9.30;;;7.50;1.00;;;;;;5032360;28;20199;-78
2023/03/13 04:19:18;;;;;;;22.00;8.83;;;7.50;1.00;;;;;;5032771;28;20229;-74
2023/03/13 04:21:44;;;;;;;23.10;8.37;;;7.60;1.00;;;;;;5032248;28;20222;-75
2023/03/13 04:24:09;;;;;;;19.20;8.00;;;7.60;1.00;;;;;;5033346;28;20195;-73
2023/03/13 04:26:35;;;;;;;15.17;7.87;;;7.60;1.00;;;;;;5033753;28;20632;-70
2023/03/13 04:29:00;;;;;;;17.30;7.93;;;7.60;1.00;;;;;;5033010;28;20627;-73
2023/03/13 04:31:26;;;;;;;22.03;8.60;;;7.60;1.00;;;;;;5032508;28;20270;-73
2023/03/13 04:33:52;;;;;;;23.90;9.40;;;7.60;1.00;;;;;;5032648;28;20168;-73
2023/03/13 04:36:17;;;;;;;15.50;8.37;;;7.60;1.00;;;;;;5032858;28;20650;-73
2023/03/13 04:38:43;;;;;;;26.17;8.43;;;7.70;1.00;;;;;;5033044;28;20179;-74
2023/03/13 04:41:10;;;;;;;19.23;8.07;;;7.70;1.00;;;;;;5032202;28;20198;-73
2023/03/13 04:43:36;;;;;;;18.03;8.50;;;7.70;1.00;;;;;;5031787;28;20203;-73
2023/03/13 04:46:02;;;;;;;20.47;8.37;;;7.70;1.00;;;;;;5033160;28;20417;-74
2023/03/13 04:48:27;;;;;;;21.93;9.47;;;7.60;1.00;;;;;;5032925;28;20206;-70
2023/03/13 04:50:53;;;;;;;21.90;8.50;;;7.60;1.00;;;;;;5032118;28;20242;-74
2023/03/13 04:53:19;;;;;;;17.47;9.13;;;7.60;1.00;;;;;;5032360;28;20184;-71
2023/03/13 04:55:46;;;;;;;17.30;8.20;;;7.70;1.00;;;;;;5032656;28;20175;-74
2023/03/13 04:58:12;;;;;;;19.30;8.27;;;7.70;1.00;;;;;;5032970;28;20566;-74
2023/03/13 05:00:40;;;;;;;17.27;8.67;;;7.70;1.00;;;;;;5032192;28;20402;-73
2023/03/13 05:03:05;;;;;;;20.03;10.10;;;7.70;1.00;;;;;;5032528;28;20606;-75
2023/03/13 05:05:34;;;;;;;20.87;9.60;;;7.70;1.00;;;;;;5032739;28;20406;-73
2023/03/13 05:08:00;;;;;;;14.70;8.70;;;7.70;1.00;;;;;;5032875;28;20175;-74
2023/03/13 05:10:26;;;;;;;16.70;8.93;;;7.80;1.00;;;;;;5032086;28;20410;-70
2023/03/13 05:12:51;;;;;;;21.67;9.47;;;7.80;1.00;;;;;;5032069;28;20429;-72
2023/03/13 05:15:17;;;;;;;17.30;8.27;;;7.80;1.00;;;;;;5032587;28;20899;-70
2023/03/13 05:17:43;;;;;;;13.27;8.40;;;7.80;1.00;;;;;;5032693;28;20179;-74
2023/03/13 05:20:10;;;;;;;13.27;8.13;;;7.80;1.00;;;;;;5031990;28;20250;-70
2023/03/13 05:22:36;;;;;;;12.90;8.70;;;7.80;1.00;;;;;;5032445;28;20211;-69
2023/03/13 05:25:03;;;;;;;24.30;8.87;;;7.80;1.00;;;;;;5032606;28;20458;-70
2023/03/13 05:27:29;;;;;;;23.07;8.03;;;7.90;1.00;;;;;;5033077;28;20402;-70
2023/03/13 05:29:55;;;;;;;11.80;8.03;;;7.90;1.00;;;;;;5035722;28;20851;-69
2023/03/13 05:32:21;;;;;;;19.80;8.10;;;7.90;1.00;;;;;;5035761;28;20418;-70
2023/03/13 05:34:47;;;;;;;17.87;8.77;;;7.90;1.00;;;;;;5034976;28;20186;-74
2023/03/13 05:37:12;;;;;;;20.33;8.57;;;7.90;1.00;;;;;;5036278;28;20199;-73
2023/03/13 05:39:38;;;;;;;23.50;8.27;;;7.90;1.00;;;;;;5035923;28;20171;-70
2023/03/13 05:42:04;;;;;;;15.13;7.93;;;8.00;1.00;;;;;;5035274;28;20257;-72
2023/03/13 05:44:29;;;;;;;19.63;8.77;;;8.00;1.00;;;;;;5034406;28;20200;-73
2023/03/13 05:46:55;;;;;;;14.50;7.87;;;8.00;1.00;;;;;;5035584;28;20501;-69
2023/03/13 05:49:21;;;;;;;13.33;7.03;;;8.00;1.00;;;;;;5035994;28;20163;-73
2023/03/13 05:51:46;;;;;;;16.07;7.87;;;8.00;1.00;;;;;;5035122;28;20184;-69
2023/03/13 05:54:12;;;;;;;15.43;7.53;;;8.00;1.00;;;;;;5035899;28;20171;-70
2023/03/13 05:56:38;;;;;;;17.13;7.50;;;8.00;1.00;;;;;;5035846;28;20213;-75
2023/03/13 05:59:04;;;;;;;14.50;5.97;;;8.00;1.00;;;;;;5035699;28;20250;-75
2023/03/13 06:01:29;;;;;;;7.67;6.90;;;8.10;1.00;;;;;;5034623;28;20198;-74
2023/03/13 06:03:55;;;;;;;10.37;6.30;;;8.10;1.00;;;;;;5033950;28;20204;-74
2023/03/13 06:06:21;;;;;;;13.67;6.37;;;8.10;1.00;;;;;;5035678;28;20247;-69
2023/03/13 06:08:46;;;;;;;9.20;5.67;;;8.20;1.00;;;;;;5035727;28;20170;-70
2023/03/13 06:11:12;;;;;;;7.07;6.00;;;8.20;1.00;;;;;;5034839;28;20254;-74
2023/03/13 06:13:38;;;;;;;10.00;5.17;;;8.20;1.00;;;;;;5034329;28;20178;-75
2023/03/13 06:16:04;;;;;;;10.77;6.20;;;8.20;1.00;;;;;;5035562;28;20254;-75
2023/03/13 06:18:30;;;;;;;16.53;6.53;;;8.20;1.00;;;;;;5035085;28;20255;-73
2023/03/13 06:20:58;;;;;;;15.63;5.93;;;8.20;1.00;;;;;;5034421;28;20481;-74
2023/03/13 06:23:24;;;;;;;11.70;4.63;;;8.20;1.00;;;;;;5035529;28;21012;-70
2023/03/13 06:25:50;;;;;;;7.57;4.20;;;8.30;1.00;;;;;;5035222;28;20397;-74
2023/03/13 06:28:16;;;;;;;5.70;4.07;;;8.30;1.00;;;;;;5035196;28;20402;-72
2023/03/13 06:30:42;;;;;;;5.50;4.17;;;8.30;1.00;;;;;;5034674;28;20234;-73
2023/03/13 06:33:08;;;;;;;9.53;4.30;;;8.30;1.00;;;;;;5035018;28;20226;-73
2023/03/13 06:35:33;;;;;;;3.43;2.90;;;8.30;1.00;;;;;;5033516;28;20513;-71
2023/03/13 06:37:59;;;;;;;6.13;4.40;;;8.40;1.00;;;;;;5034736;28;20195;-74
2023/03/13 06:40:25;;;;;;;6.03;3.87;;;8.40;1.00;;;;;;5033503;28;20206;-70
2023/03/13 06:42:50;;;;;;;7.13;3.63;;;8.40;1.00;;;;;;5033739;28;20239;-71
2023/03/13 06:45:16;;;;;;;3.27;2.70;;;8.40;1.00;;;;;;5034978;28;20211;-70
2023/03/13 06:47:42;;;;;;;4.30;3.60;;;8.40;1.00;;;;;;5034882;28;20156;-69
2023/03/13 06:50:08;;;;;;;8.13;3.87;;;8.50;1.00;;;;;;5034181;28;20175;-70
2023/03/13 06:52:34;;;;;;;3.80;3.00;;;8.50;1.00;;;;;;5034727;28;20226;-69
2023/03/13 06:54:59;;;;;;;4.03;3.73;;;8.50;1.00;;;;;;5034747;28;20430;-69
2023/03/13 06:57:25;;;;;;;5.10;3.00;;;8.50;1.00;;;;;;5034154;28;20179;-71
2023/03/13 06:59:51;;;;;;;2.97;2.70;;;8.50;1.00;;;;;;5034484;28;20176;-71
2023/03/13 07:02:17;;;;;;;5.77;3.27;;;8.50;1.00;;;;;;5033769;28;20545;-70
2023/03/13 07:04:44;;;;;;;3.10;2.90;;;8.50;1.00;;;;;;5034669;28;20646;-69
2023/03/13 07:07:10;;;;;;;6.30;3.67;;;8.50;1.00;;;;;;5034553;28;20289;-69
2023/03/13 07:09:36;;;;;;;3.33;2.87;;;8.50;1.00;;;;;;5034473;28;20482;-71
2023/03/13 07:12:02;;;;;;;3.30;3.07;;;8.50;1.00;;;;;;5033758;28;20214;-72
2023/03/13 07:14:28;;;;;;;4.83;3.23;;;8.60;1.00;;;;;;5033986;28;20771;-71
2023/03/13 07:16:53;;;;;;;3.20;2.90;;;8.60;1.00;;;;;;5034170;28;20453;-72
2023/03/13 07:19:19;;;;;;;4.40;3.97;;;8.60;1.00;;;;;;5034318;28;20418;-71
2023/03/13 07:21:45;;;;;;;5.90;3.60;;;8.60;1.00;;;;;;5033434;28;20237;-70
2023/03/13 07:24:11;;;;;;;3.93;3.03;;;8.70;1.00;;;;;;5034194;28;20158;-71
2023/03/13 07:26:37;;;;;;;3.10;2.80;;;8.70;1.00;;;;;;5034198;28;20486;-70
2023/03/13 07:29:03;;;;;;;5.70;3.00;;;8.70;1.00;;;;;;5034051;28;20172;-70
2023/03/13 07:31:32;;;;;;;4.53;3.00;;;8.80;1.00;;;;;;5033500;28;20422;-70
2023/03/13 07:33:58;;;;;;;3.30;3.10;;;8.80;1.00;;;;;;5033438;28;20167;-70
2023/03/13 07:36:24;;;;;;;3.43;2.73;;;8.90;1.00;;;;;;5033846;28;20400;-70
2023/03/13 07:38:51;;;;;;;4.17;3.40;;;8.90;1.00;;;;;;5034047;28;20406;-70
2023/03/13 07:41:18;;;;;;;6.30;3.33;;;8.90;1.00;;;;;;5033155;28;20412;-70
2023/03/13 07:43:45;;;;;;;3.80;3.07;;;9.00;1.00;;;;;;5034167;28;20543;-70
2023/03/13 07:46:17;;;;;;;3.80;3.37;;;9.10;1.00;;;;;;5032600;28;20411;-70
2023/03/13 07:48:43;;;;;;;3.73;3.00;;;9.20;1.00;;;;;;5033815;28;20395;-71
2023/03/13 07:51:18;;;;;;;4.23;3.90;;;9.20;1.00;;;;;;5032712;28;20405;-71
2023/03/13 07:53:46;;;;;;;4.67;4.27;;;9.30;1.00;;;;;;5033129;28;20406;-69
2023/03/13 07:56:14;;;;;;;4.20;3.80;;;9.30;1.00;;;;;;5033608;28;20403;-71
2023/03/13 07:58:41;;;;;;;6.83;5.13;;;9.30;1.00;;;;;;5033593;28;20408;-71
2023/03/13 08:01:11;;;;;;;4.83;4.27;;;9.40;1.00;;;;;;5032892;28;20416;-72
2023/03/13 08:03:37;;;;;;;4.27;3.60;;;9.40;1.00;;;;;;5033398;28;20460;-70
2023/03/13 08:06:06;;;;;;;4.90;4.07;;;9.40;1.00;;;;;;5033556;28;20407;-70
2023/03/13 08:08:32;;;;;;;4.67;4.27;;;9.50;1.00;;;;;;5032875;28;20751;-70
2023/03/13 08:11:03;;;;;;;4.47;3.60;;;9.40;1.00;;;;;;5032447;28;20466;-70
2023/03/13 08:13:30;;;;;;;3.90;3.60;;;9.50;1.00;;;;;;5033447;28;20463;-70
2023/03/13 08:16:07;;;;;;;4.03;3.73;;;9.50;1.00;;;;;;5033582;28;20404;-69
2023/03/13 08:18:34;;;;;;;4.57;3.27;;;9.50;1.00;;;;;;5033231;28;20909;-70
2023/03/13 08:21:02;;;;;;;3.60;3.40;;;9.60;1.00;;;;;;5031246;28;20419;-69
2023/03/13 08:23:28;;;;;;;3.67;3.27;;;9.60;1.00;;;;;;5033150;28;20441;-71
2023/03/13 08:25:54;;;;;;;3.23;3.03;;;9.60;1.00;;;;;;5033055;28;20494;-69
2023/03/13 08:28:19;;;;;;;3.00;2.80;;;9.70;1.00;;;;;;5032929;28;20196;-70
2023/03/13 08:30:45;;;;;;;3.20;2.13;;;9.70;1.00;;;;;;5032476;28;20168;-70
2023/03/13 08:33:11;;;;;;;4.40;3.10;;;9.70;1.00;;;;;;5033063;28;20202;-69
2023/03/13 08:35:36;;;;;;;2.23;2.03;;;9.80;1.00;;;;;;5033118;28;20220;-71
2023/03/13 08:38:02;;;;;;;5.60;2.27;;;9.80;1.00;;;;;;5033184;28;20185;-71
2023/03/13 08:40:28;;;;;;;2.80;2.60;;;9.90;1.00;;;;;;5032403;28;20191;-71
2023/03/13 08:42:53;;;;;;;3.43;3.23;;;9.90;1.00;;;;;;5031579;28;20207;-71
2023/03/13 08:45:19;;;;;;;2.60;2.40;;;10.00;1.00;;;;;;5032791;28;20160;-70
2023/03/13 08:47:45;;;;;;;2.90;2.70;;;10.00;1.00;;;;;;5032879;28;20170;-69
2023/03/13 08:50:11;;;;;;;3.50;3.07;;;10.10;1.00;;;;;;5032508;28;20166;-71
2023/03/13 08:52:36;;;;;;;2.50;2.30;;;10.10;1.00;;;;;;5032816;28;20237;-70
2023/03/13 08:55:02;;;;;;;4.20;2.90;;;10.20;1.00;;;;;;5032709;28;20547;-72
2023/03/13 08:57:28;;;;;;;3.83;2.37;;;10.20;1.00;;;;;;5033097;28;20524;-70
2023/03/13 08:59:54;;;;;;;2.37;2.17;;;10.30;1.00;;;;;;5032650;28;20178;-72
2023/03/13 09:02:20;;;;;;;2.37;2.17;;;10.30;1.00;;;;;;5031996;28;20807;-70
2023/03/13 09:04:47;;;;;;;2.60;2.40;;;10.40;1.00;;;;;;5036236;28;20173;-69
2023/03/13 09:07:13;;;;;;;2.47;2.27;;;10.50;1.00;;;;;;5036662;28;20171;-69
2023/03/13 09:09:39;;;;;;;2.00;1.90;;;10.50;1.00;;;;;;5036782;28;20944;-69
2023/03/13 09:12:05;;;;;;;2.20;1.63;;;10.50;1.00;;;;;;5035969;28;20424;-69
2023/03/13 09:14:30;;;;;;;2.40;2.20;;;10.50;1.00;;;;;;5036799;28;20237;-70
2023/03/13 09:16:58;;;;;;;2.50;2.30;;;10.60;1.00;;;;;;5036327;28;20915;-69
2023/03/13 09:19:23;;;;;;;1.97;1.87;;;10.60;1.00;;;;;;5036442;28;20179;-69
2023/03/13 09:21:49;;;;;;;1.90;1.80;;;10.70;1.00;;;;;;5035010;28;20472;-69
2023/03/13 09:24:15;;;;;;;2.30;2.20;;;10.70;1.00;;;;;;5036478;28;20250;-69
2023/03/13 09:26:41;;;;;;;2.00;1.90;;;10.70;1.00;;;;;;5036420;28;20171;-69
2023/03/13 09:29:06;;;;;;;2.70;2.10;;;10.80;1.00;;;;;;5036318;28;20560;-69
2023/03/13 09:31:33;;;;;;;1.80;1.70;;;10.80;1.00;;;;;;5035469;28;20707;-68
2023/03/13 09:33:59;;;;;;;1.93;1.83;;;10.90;1.00;;;;;;5036301;28;20406;-70
2023/03/13 09:36:25;;;;;;;2.80;2.50;;;10.90;1.00;;;;;;5036182;28;20421;-69
2023/03/13 09:38:53;;;;;;;2.10;2.00;;;11.00;1.00;;;;;;5035577;28;20371;-69
2023/03/13 09:41:24;;;;;;;1.80;1.70;;;11.00;1.00;;;;;;5035495;28;20509;-70
2023/03/13 09:44:09;;;;;;;1.70;1.60;;;11.10;1.00;;;;;;5036041;28;20823;-69
2023/03/13 09:46:52;;;;;;;1.60;1.30;;;11.20;1.00;;;;;;5036096;28;20380;-69
2023/03/13 09:49:32;;;;;;;1.93;1.50;;;11.20;1.00;;;;;;5035838;28;20410;-69
2023/03/13 09:52:30;;;;;;;2.00;1.80;;;11.30;1.00;;;;;;5035354;28;20448;-69
2023/03/13 09:55:03;;;;;;;1.87;1.77;;;11.40;1.00;;;;;;5035923;28;20388;-69
2023/03/13 09:58:02;;;;;;;1.30;1.20;;;11.40;1.00;;;;;;5035155;28;20489;-69
2023/03/13 10:00:34;;;;;;;1.67;1.57;;;11.40;1.00;;;;;;5035160;28;20412;-68
2023/03/13 10:03:06;;;;;;;1.47;1.37;;;11.50;1.00;;;;;;5035592;28;20445;-68
2023/03/13 10:05:32;;;;;;;1.67;1.57;;;11.50;1.00;;;;;;5035430;28;20468;-70
2023/03/13 10:08:23;;;;;;;1.37;1.27;;;11.60;1.00;;;;;;5035689;28;20373;-69
2023/03/13 10:10:57;;;;;;;4.10;1.50;;;11.60;1.00;;;;;;5034989;28;20434;-69
2023/03/13 10:13:34;;;;;;;1.47;1.13;;;11.70;1.00;;;;;;5034219;28;20497;-69
2023/03/13 10:16:14;;;;;;;1.63;1.53;;;11.60;1.00;;;;;;5034979;28;20451;-68
2023/03/13 10:18:47;;;;;;;3.20;1.70;;;11.70;1.00;;;;;;5035512;28;20401;-68
2023/03/13 10:21:17;;;;;;;2.23;2.03;;;11.70;1.00;;;;;;5034767;28;20469;-67
2023/03/13 10:23:53;;;;;;;1.80;1.70;;;11.60;1.00;;;;;;5035124;28;20453;-68
2023/03/13 10:26:26;;;;;;;1.87;1.77;;;11.60;1.00;;;;;;5035190;28;20377;-67
2023/03/13 10:28:53;;;;;;;2.83;2.50;;;11.60;1.00;;;;;;5035298;28;20369;-68
2023/03/13 10:31:31;;;;;;;4.73;2.90;;;11.60;1.00;;;;;;5033914;28;20418;-70
2023/03/13 10:34:11;;;;;;;2.50;2.33;;;11.60;1.00;;;;;;5035164;28;20402;-68
2023/03/13 10:36:46;;;;;;;2.93;2.73;;;11.70;1.00;;;;;;5035134;28;20409;-68
2023/03/13 10:39:17;;;;;;;3.83;3.00;;;11.70;1.00;;;;;;5035231;28;20878;-68
2023/03/13 10:41:43;;;;;;;3.70;2.70;;;11.70;1.00;;;;;;5034149;28;20429;-67
2023/03/13 10:44:18;;;;;;;3.77;2.87;;;11.80;1.00;;;;;;5034851;28;20454;-70
2023/03/13 10:46:46;;;;;;;3.30;2.27;;;11.80;1.00;;;;;;5034978;28;20380;-69
2023/03/13 10:49:18;;;;;;;2.90;2.63;;;11.90;1.00;;;;;;5034333;28;20469;-68
2023/03/13 10:51:51;;;;;;;5.53;3.20;;;12.00;1.00;;;;;;5034056;28;20393;-71
2023/03/13 10:54:36;;;;;;;2.83;2.63;;;12.10;1.00;;;;;;5034688;28;20381;-67
2023/03/13 10:57:17;;;;;;;3.37;2.33;;;12.30;1.00;;;;;;5034704;28;20380;-71
2023/03/13 10:59:48;;;;;;;5.23;2.57;;;12.40;1.00;;;;;;5034566;28;20406;-67
2023/03/13 11:02:35;;;;;;;2.30;2.20;;;12.60;1.00;;;;;;5033788;28;20454;-68
2023/03/13 11:05:24;;;;;;;5.17;2.57;;;12.60;1.00;;;;;;5034523;28;20552;-71
2023/03/13 11:07:51;;;;;;;2.37;2.27;;;12.60;1.00;;;;;;5022060;28;20500;-72
2023/03/13 11:10:26;;;;;;;2.60;2.17;;;12.70;1.00;;;;;;5032609;28;20400;-72
2023/03/13 11:12:54;;;;;;;3.17;2.97;;;12.80;1.00;;;;;;5034377;28;20440;-70
2023/03/13 11:15:27;;;;;;;3.27;2.47;;;12.80;1.00;;;;;;5034493;28;20740;-70
2023/03/13 11:18:33;;;;;;;2.30;2.10;;;12.80;1.00;;;;;;5034402;28;20385;-72
2023/03/13 11:21:02;;;;;;;3.07;2.00;;;12.80;99.90;;;;;;5010979;28;20422;-74
2023/03/13 11:23:33;;;;;;;2.90;2.23;;;12.90;99.90;;;;;;5034143;28;20553;-73
2023/03/13 11:26:09;;;;;;;2.80;2.10;;;12.90;99.90;;;;;;5033258;28;20435;-72
2023/03/13 11:28:52;;;;;;;2.37;1.60;;;13.00;99.90;;;;;;5034091;28;20376;-71
2023/03/13 11:31:28;;;;;;;3.77;2.37;;;13.10;99.90;;;;;;5033504;28;20761;-70
2023/03/13 11:34:25;;;;;;;7.73;2.23;;;13.20;99.90;;;;;;5034060;28;20393;-71
2023/03/13 11:36:55;;;;;;;2.20;2.00;;;13.30;99.90;;;;;;5034054;28;20464;-75
2023/03/13 11:39:54;;;;;;;3.50;2.07;;;13.50;99.90;;;;;;5034024;28;20381;-74
2023/03/13 11:42:31;;;;;;;3.50;1.83;;;13.70;99.90;;;;;;5033109;28;20444;-72
2023/03/13 11:45:34;;;;;;;4.53;2.43;;;13.80;99.90;;;;;;5033805;28;20722;-73
2023/03/13 11:48:27;;;;;;;2.47;1.90;;;13.80;99.90;;;;;;5033445;28;20909;-73
2023/03/13 11:51:02;;;;;;;1.73;1.63;;;13.80;99.90;;;;;;5032969;28;20381;-74
2023/03/13 11:53:54;;;;;;;2.53;1.50;;;13.90;99.90;;;;;;5032436;28;20397;-76
2023/03/13 11:56:27;;;;;;;1.80;1.70;;;13.80;91.00;;;;;;5014702;28;20400;-72
2023/03/13 11:59:30;;;;;;;7.90;1.70;;;13.90;70.20;;;;;;5033579;28;20385;-77
2023/03/13 12:02:18;;;;;;;5.23;2.33;;;13.90;43.80;;;;;;5032806;28;20756;-74
2023/03/13 12:04:57;;;;;;;3.90;1.80;;;13.90;11.40;;;;;;5019153;28;20503;-73
2023/03/13 12:07:35;;;;;;;1.40;1.30;;;13.80;1.00;;;;;;5033235;28;20409;-76
2023/03/13 12:10:02;;;;;;;3.63;1.60;;;13.90;1.00;;;;;;5033278;28;20740;-75
2023/03/13 12:13:02;;;;;;;1.97;1.67;;;13.90;1.00;;;;;;5032890;28;20414;-73
2023/03/13 12:15:34;;;;;;;3.60;1.50;;;14.10;1.00;;;;;;5033257;28;20426;-72
2023/03/13 12:18:39;;;;;;;8.13;2.50;;;14.40;1.00;;;;;;5033362;28;20884;-77
2023/03/13 12:21:18;;;;;;;4.53;1.90;;;14.50;1.00;;;;;;5020670;28;20481;-75
2023/03/13 12:24:15;;;;;;;3.30;1.83;;;14.70;1.00;;;;;;5032852;28;20435;-77
2023/03/13 12:26:46;;;;;;;3.47;1.53;;;14.70;1.00;;;;;;5032111;28;20450;-73
2023/03/13 12:29:34;;;;;;;2.83;2.10;;;14.80;99.90;;;;;;5033207;28;20430;-76
2023/03/13 12:32:24;;;;;;;2.80;1.70;;;15.10;99.90;;;;;;5032530;28;20451;-73
2023/03/13 12:35:11;;;;;;;2.77;2.00;;;15.10;99.90;;;;;;5018800;28;20889;-73
2023/03/13 12:38:06;;;;;;;8.93;3.97;;;14.90;99.90;;;;;;5032189;28;20437;-79
2023/03/13 12:40:40;;;;;;;10.00;2.33;;;14.70;99.90;;;;;;5030116;28;20393;-73
2023/03/13 12:43:30;;;;;;;3.73;1.63;;;14.50;99.90;;;;;;5031061;28;20793;-73
2023/03/13 12:45:58;;;;;;;6.40;2.40;;;14.40;99.90;;;;;;5032046;28;20426;-75
2023/03/13 12:48:30;;;;;;;5.60;2.10;;;14.40;99.90;;;;;;5032910;28;20891;-75
2023/03/13 12:51:05;;;;;;;6.17;2.53;;;14.40;99.90;;;;;;5032082;28;20373;-75
2023/03/13 12:53:52;;;;;;;3.93;2.60;;;14.50;99.90;;;;;;5032861;28;20467;-76
2023/03/13 12:56:28;;;;;;;8.30;2.30;;;14.40;99.90;;;;;;5032785;28;20413;-76
2023/03/13 12:59:15;;;;;;;6.13;2.50;;;14.50;99.90;;;;;;5032787;28;20425;-73
2023/03/13 13:01:53;;;;;;;10.90;1.93;;;14.50;99.90;;;;;;5030500;28;20421;-71
2023/03/13 13:04:25;;;;;;;6.40;1.93;;;14.40;99.90;;;;;;5032832;28;20385;-76
2023/03/13 13:07:01;;;;;;;5.73;2.20;;;14.30;99.90;;;;;;5032760;28;20394;-75
2023/03/13 13:09:56;;;;;;;7.00;3.00;;;14.40;99.90;;;;;;5032741;28;20895;-75
2023/03/13 13:12:25;;;;;;;7.70;2.80;;;14.40;99.90;;;;;;5032018;28;20989;-69
2023/03/13 13:15:00;;;;;;;5.47;2.13;;;14.40;99.90;;;;;;5032648;28;20734;-76